createdAt,value
2023-12-24T00:01:17.823Z,100302.50
2023-12-24T00:03:45.187Z,100302.47
2023-12-24T00:06:12.606Z,100294.53
2023-12-24T00:08:39.873Z,100291.84
2023-12-24T00:11:07.248Z,100292.69
2023-12-24T00:13:34.891Z,100272.13
2023-12-24T00:16:02.465Z,100271.28
2023-12-24T00:18:29.854Z,100277.28
2023-12-24T00:20:57.227Z,100283.56
2023-12-24T00:23:24.477Z,100264.97
2023-12-24T00:25:51.620Z,100269.28
2023-12-24T00:28:18.716Z,100279.09
2023-12-24T00:30:47.349Z,100269.28
2023-12-24T00:33:14.689Z,100275.44
2023-12-24T00:35:41.941Z,100249.63
2023-12-24T00:38:09.164Z,100265.47
2023-12-24T00:40:36.334Z,100267.25
2023-12-24T00:43:03.648Z,100259.25
2023-12-24T00:45:32.438Z,100242.34
2023-12-24T00:47:59.817Z,100259.25
2023-12-24T00:50:27.191Z,100264.50
2023-12-24T00:52:55.012Z,100258.22
2023-12-24T00:55:22.412Z,100252.03
2023-12-24T00:57:49.554Z,100261.56
2023-12-24T01:00:16.860Z,100247.28
2023-12-24T01:02:43.936Z,100262.59
2023-12-24T01:05:11.111Z,100254.31
2023-12-24T01:07:38.218Z,100254.38
2023-12-24T01:10:06.486Z,100249.84
2023-12-24T01:12:34.010Z,100249.97
2023-12-24T01:15:01.162Z,100252.59
2023-12-24T01:17:28.489Z,100233.06
2023-12-24T01:19:58.166Z,100233.97
2023-12-24T01:22:25.434Z,100234.03
2023-12-24T01:24:52.488Z,100220.97
2023-12-24T01:27:19.585Z,100234.13
2023-12-24T01:29:46.761Z,100230.63
2023-12-24T01:32:14.494Z,100241.44
2023-12-24T01:34:42.645Z,100250.44
2023-12-24T01:37:09.730Z,100250.34
2023-12-24T01:39:36.947Z,100266.22
2023-12-24T01:42:04.508Z,100259.25
2023-12-24T01:44:31.735Z,100254.91
2023-12-24T01:46:59.572Z,100256.81
2023-12-24T01:49:27.198Z,100269.00
2023-12-24T01:51:55.569Z,100272.56
2023-12-24T01:54:23.655Z,100275.16
2023-12-24T01:56:50.809Z,100277.75
2023-12-24T01:59:18.440Z,100277.69
2023-12-24T02:01:47.347Z,100276.81
2023-12-24T02:04:16.293Z,100274.13
2023-12-24T02:06:44.640Z,100282.22
2023-12-24T02:09:12.034Z,100282.16
2023-12-24T02:11:39.165Z,100283.25
2023-12-24T02:14:06.504Z,100289.25
2023-12-24T02:16:39.209Z,100293.56
2023-12-24T02:19:12.237Z,100292.69
2023-12-24T02:21:39.389Z,100290.81
2023-12-24T02:24:07.400Z,100302.38
2023-12-24T02:26:49.072Z,100298.63
2023-12-24T02:29:27.783Z,100292.50
2023-12-24T02:32:06.194Z,100294.38
2023-12-24T02:34:34.425Z,100293.44
2023-12-24T02:37:02.012Z,100292.50
2023-12-24T02:39:29.077Z,100290.72
2023-12-24T02:41:56.248Z,100294.31
2023-12-24T02:44:23.466Z,100298.63
2023-12-24T02:46:50.546Z,100305.72
2023-12-24T02:49:17.953Z,100294.16
2023-12-24T02:51:45.166Z,100293.09
2023-12-24T02:54:12.329Z,100298.44
2023-12-24T02:56:39.491Z,100302.97
2023-12-24T02:59:06.759Z,100315.56
2023-12-24T03:01:33.869Z,100297.91
2023-12-24T03:04:03.361Z,100304.22
2023-12-24T03:06:30.424Z,100285.69
2023-12-24T03:08:57.533Z,100307.56
2023-12-24T03:11:24.639Z,100306.69
2023-12-24T03:13:51.704Z,100263.38
2023-12-24T03:16:19.596Z,100261.28
2023-12-24T03:18:46.807Z,100263.91
2023-12-24T03:21:13.944Z,100259.50
2023-12-24T03:23:41.062Z,100266.50
2023-12-24T03:26:18.176Z,100254.00
2023-12-24T03:28:45.697Z,100258.44
2023-12-24T03:31:15.977Z,100257.41
2023-12-24T03:33:44.232Z,100251.00
2023-12-24T03:36:11.558Z,100246.25
2023-12-24T03:38:38.829Z,100239.06
2023-12-24T03:41:06.200Z,100231.28
2023-12-24T03:43:33.873Z,100245.38
2023-12-24T03:46:01.074Z,100248.78
2023-12-24T03:48:28.484Z,100238.13
2023-12-24T03:50:55.661Z,100247.72
2023-12-24T03:53:22.864Z,100248.59
2023-12-24T03:55:49.944Z,100233.44
2023-12-24T03:58:17.154Z,100223.06
2023-12-24T04:00:44.274Z,100233.38
2023-12-24T04:03:11.403Z,100225.31
2023-12-24T04:05:38.628Z,100220.84
2023-12-24T04:08:06.099Z,100223.16
2023-12-24T04:10:33.216Z,100212.56
2023-12-24T04:13:04.291Z,100191.28
2023-12-24T04:15:32.286Z,100197.41
2023-12-24T04:18:00.767Z,100188.53
2023-12-24T04:20:28.247Z,100199.13
2023-12-24T04:22:55.413Z,100179.81
2023-12-24T04:25:22.516Z,100204.56
2023-12-24T04:27:49.658Z,100209.91
2023-12-24T04:30:16.901Z,100216.22
2023-12-24T04:32:44.694Z,100212.69
2023-12-24T04:35:12.451Z,100201.22
2023-12-24T04:37:39.571Z,100194.00
2023-12-24T04:40:07.839Z,100178.22
2023-12-24T04:42:35.570Z,100169.56
2023-12-24T04:45:03.566Z,100167.50
2023-12-24T04:47:30.754Z,100184.50
2023-12-24T04:49:58.041Z,100180.09
2023-12-24T04:52:25.152Z,100163.53
2023-12-24T04:54:52.294Z,100180.03
2023-12-24T04:57:19.414Z,100174.75
2023-12-24T04:59:46.806Z,100185.22
2023-12-24T05:02:13.975Z,100168.41
2023-12-24T05:04:41.045Z,100167.50
2023-12-24T05:07:08.277Z,100165.81
2023-12-24T05:09:35.850Z,100167.28
2023-12-24T05:12:03.085Z,100172.47
2023-12-24T05:14:30.937Z,100183.22
2023-12-24T05:16:58.189Z,100162.00
2023-12-24T05:19:25.399Z,100153.03
2023-12-24T05:21:52.548Z,100162.84
2023-12-24T05:24:19.694Z,100167.94
2023-12-24T05:26:47.466Z,100150.97
2023-12-24T05:29:14.924Z,100160.63
2023-12-24T05:31:43.103Z,100178.41
2023-12-24T05:34:10.260Z,100153.00
2023-12-24T05:36:39.717Z,100150.91
2023-12-24T05:39:12.429Z,100162.44
2023-12-24T05:41:39.708Z,100144.78
2023-12-24T05:44:06.864Z,100140.59
2023-12-24T05:46:33.944Z,100143.47
2023-12-24T05:49:01.181Z,100150.47
2023-12-24T05:51:28.525Z,100165.59
2023-12-24T05:53:55.577Z,100173.47
2023-12-24T05:56:22.701Z,100168.28
2023-12-24T05:58:49.794Z,100157.47
2023-12-24T06:01:16.987Z,100141.81
2023-12-24T06:03:44.203Z,100140.94
2023-12-24T06:06:11.681Z,100136.63
2023-12-24T06:08:39.487Z,100126.19
2023-12-24T06:11:06.863Z,100129.63
2023-12-24T06:13:34.006Z,100142.09
2023-12-24T06:16:01.097Z,100127.25
2023-12-24T06:18:28.371Z,100134.22
2023-12-24T06:20:55.658Z,100148.59
2023-12-24T06:23:22.821Z,100152.13
2023-12-24T06:25:49.948Z,100147.78
2023-12-24T06:28:17.056Z,100149.25
2023-12-24T06:30:44.338Z,100150.22
2023-12-24T06:33:11.594Z,100143.31
2023-12-24T06:35:38.836Z,100125.09
2023-12-24T06:38:06.048Z,100140.91
2023-12-24T06:40:33.469Z,100137.31
2023-12-24T06:43:00.550Z,100126.00
2023-12-24T06:45:27.688Z,100132.13
2023-12-24T06:47:55.080Z,100120.66
2023-12-24T06:50:23.524Z,100118.91
2023-12-24T06:52:50.970Z,100108.53
2023-12-24T06:55:18.204Z,100105.00
2023-12-24T06:57:45.258Z,100079.75
2023-12-24T07:00:13.331Z,100088.66
2023-12-24T07:02:40.497Z,100100.19
2023-12-24T07:05:08.144Z,100072.78
2023-12-24T07:07:35.291Z,100065.72
2023-12-24T07:10:03.550Z,100067.44
2023-12-24T07:12:31.376Z,100068.31
2023-12-24T07:14:58.512Z,100071.06
2023-12-24T07:17:25.775Z,100067.59
2023-12-24T07:19:53.048Z,100063.19
2023-12-24T07:22:21.085Z,100064.25
2023-12-24T07:24:48.162Z,100061.50
2023-12-24T07:27:15.444Z,100056.06
2023-12-24T07:29:42.862Z,100072.84
2023-12-24T07:32:10.474Z,100062.16
2023-12-24T07:34:37.517Z,100080.69
2023-12-24T07:37:04.801Z,100060.41
2023-12-24T07:39:31.877Z,100078.13
2023-12-24T07:41:58.964Z,100089.66
2023-12-24T07:44:26.142Z,100080.06
2023-12-24T07:46:53.390Z,100076.31
2023-12-24T07:49:20.542Z,100086.25
2023-12-24T07:51:48.878Z,100084.38
2023-12-24T07:54:16.176Z,100076.31
2023-12-24T07:56:43.370Z,100071.97
2023-12-24T07:59:10.544Z,100073.78
2023-12-24T08:01:41.098Z,100064.34
2023-12-24T08:04:08.198Z,100067.28
2023-12-24T08:06:35.657Z,100058.28
2023-12-24T08:09:03.469Z,100059.31
2023-12-24T08:11:30.613Z,100072.69
2023-12-24T08:13:57.749Z,100061.44
2023-12-24T08:16:24.843Z,100058.91
2023-12-24T08:18:52.074Z,100065.25
2023-12-24T08:21:19.315Z,100067.91
2023-12-24T08:23:46.376Z,100076.03
2023-12-24T08:26:14.984Z,100095.50
2023-12-24T08:28:42.547Z,100091.91
2023-12-24T08:31:09.619Z,100098.22
2023-12-24T08:33:36.738Z,100092.91
2023-12-24T08:36:05.217Z,100119.41
2023-12-24T08:38:32.369Z,100109.94
2023-12-24T08:40:59.761Z,100117.03
2023-12-24T08:43:26.802Z,100119.03
2023-12-24T08:45:53.864Z,100130.47
2023-12-24T08:48:21.224Z,100129.63
2023-12-24T08:50:48.502Z,100119.03
2023-12-24T08:53:15.687Z,100126.28
2023-12-24T08:55:42.782Z,100123.63
2023-12-24T08:58:10.113Z,100117.47
2023-12-24T09:00:37.210Z,100101.72
2023-12-24T09:03:04.830Z,100103.66
2023-12-24T09:05:31.998Z,100109.66
2023-12-24T09:07:59.679Z,100106.81
2023-12-24T09:10:26.728Z,100101.38
2023-12-24T09:12:54.121Z,100090.78
2023-12-24T09:15:21.548Z,100098.78
2023-12-24T09:17:48.821Z,100110.22
2023-12-24T09:20:16.046Z,100108.44
2023-12-24T09:22:43.175Z,100114.69
2023-12-24T09:25:10.284Z,100111.91
2023-12-24T09:27:37.431Z,100111.03
2023-12-24T09:30:06.206Z,100100.22
2023-12-24T09:32:34.072Z,100086.13
2023-12-24T09:35:02.116Z,100092.31
2023-12-24T09:37:29.389Z,100109.91
2023-12-24T09:39:56.508Z,100102.78
2023-12-24T09:42:24.049Z,100118.75
2023-12-24T09:44:51.213Z,100099.94
2023-12-24T09:47:18.462Z,100108.84
2023-12-24T09:49:45.691Z,100110.50
2023-12-24T09:52:12.845Z,100102.56
2023-12-24T09:54:40.346Z,100111.16
2023-12-24T09:57:08.232Z,100103.22
2023-12-24T09:59:35.326Z,100109.50
2023-12-24T10:02:05.171Z,100083.56
2023-12-24T10:04:32.650Z,100093.22
2023-12-24T10:07:00.727Z,100102.94
2023-12-24T10:09:50.482Z,100106.47
2023-12-24T10:12:19.473Z,100104.81
2023-12-24T10:14:59.253Z,100116.34
2023-12-24T10:17:35.152Z,100112.94
2023-12-24T10:20:09.695Z,100103.22
2023-12-24T10:22:37.082Z,100102.41
2023-12-24T10:25:08.512Z,100103.22
2023-12-24T10:27:36.063Z,100112.03
2023-12-24T10:30:14.562Z,100117.75
2023-12-24T10:32:44.134Z,100121.28
2023-12-24T10:35:11.769Z,100120.41
2023-12-24T10:37:39.106Z,100118.69
2023-12-24T10:40:12.291Z,100104.69
2023-12-24T10:42:41.020Z,100109.94
2023-12-24T10:45:09.807Z,100095.91
2023-12-24T10:47:38.088Z,100103.09
2023-12-24T10:50:06.457Z,100108.38
2023-12-24T10:52:33.934Z,100103.75
2023-12-24T10:55:02.709Z,100093.91
2023-12-24T10:57:41.273Z,100103.56
2023-12-24T11:00:12.416Z,100101.09
2023-12-24T11:02:46.305Z,100098.31
2023-12-24T11:05:33.739Z,100102.69
2023-12-24T11:08:00.896Z,100098.19
2023-12-24T11:10:44.842Z,100095.16
2023-12-24T11:13:33.053Z,100100.47
2023-12-24T11:16:02.444Z,100095.16
2023-12-24T11:18:45.724Z,100107.53
2023-12-24T11:21:21.259Z,100101.50
2023-12-24T11:24:11.964Z,100105.69
2023-12-24T11:26:39.446Z,100096.09
2023-12-24T11:29:50.744Z,100101.22
2023-12-24T11:32:27.633Z,100097.81
2023-12-24T11:35:00.376Z,100096.81
2023-12-24T11:37:35.628Z,100088.66
2023-12-24T11:40:03.300Z,100089.63
2023-12-24T11:42:52.631Z,100094.81
2023-12-24T11:45:32.875Z,100085.00
2023-12-24T11:48:02.661Z,100073.91
2023-12-24T11:50:30.677Z,100090.56
2023-12-24T11:52:58.610Z,100090.34
2023-12-24T11:55:25.842Z,100089.41
2023-12-24T11:57:53.063Z,100088.53
2023-12-24T12:00:28.196Z,100084.00
2023-12-24T12:03:01.288Z,100079.72
2023-12-24T12:05:30.330Z,100064.97
2023-12-24T12:07:58.035Z,100076.50
2023-12-24T12:10:25.289Z,100078.38
2023-12-24T12:12:52.927Z,100082.75
2023-12-24T12:15:24.765Z,100077.50
2023-12-24T12:17:52.527Z,100074.78
2023-12-24T12:20:20.465Z,100068.50
2023-12-24T12:22:50.529Z,100073.75
2023-12-24T12:25:18.200Z,100065.63
2023-12-24T12:27:47.103Z,100070.28
2023-12-24T12:30:15.669Z,100084.28
2023-12-24T12:32:42.826Z,100061.56
2023-12-24T12:35:12.073Z,100070.22
2023-12-24T12:37:39.362Z,100059.56
2023-12-24T12:40:07.611Z,100063.25
2023-12-24T12:42:42.750Z,100058.84
2023-12-24T12:45:12.262Z,100063.28
2023-12-24T12:47:40.040Z,100060.56
2023-12-24T12:50:08.551Z,100057.91
2023-12-24T12:52:35.988Z,100040.25
2023-12-24T12:55:09.106Z,100035.72
2023-12-24T12:57:40.233Z,100040.19
2023-12-24T13:00:31.603Z,100042.78
2023-12-24T13:03:08.739Z,100031.31
2023-12-24T13:05:36.125Z,100044.63
2023-12-24T13:08:16.669Z,100034.78
2023-12-24T13:10:44.429Z,100025.06
2023-12-24T13:13:25.574Z,100023.25
2023-12-24T13:16:08.509Z,100008.47
2023-12-24T13:18:36.655Z,100013.81
2023-12-24T13:21:08.840Z,100000.44
2023-12-24T13:23:36.259Z,100002.22
2023-12-24T13:26:05.219Z,99994.28
2023-12-24T13:28:34.093Z,99979.97
2023-12-24T13:31:02.613Z,99980.75
2023-12-24T13:33:29.892Z,99983.63
2023-12-24T13:35:57.135Z,99988.66
2023-12-24T13:38:24.307Z,99998.31
2023-12-24T13:40:53.170Z,100012.38
2023-12-24T13:43:20.464Z,100020.38
2023-12-24T13:45:47.897Z,100006.25
2023-12-24T13:48:15.339Z,100002.72
2023-12-24T13:50:43.429Z,99992.91
2023-12-24T13:53:19.479Z,99986.88
2023-12-24T13:55:58.542Z,100000.13
2023-12-24T13:58:26.662Z,99983.41
2023-12-24T14:00:53.948Z,99983.56
2023-12-24T14:03:26.024Z,99992.13
2023-12-24T14:05:53.791Z,100004.72
2023-12-24T14:08:24.047Z,100013.38
2023-12-24T14:10:51.297Z,100001.94
2023-12-24T14:13:18.476Z,100004.31
2023-12-24T14:15:45.827Z,100006.97
2023-12-24T14:18:13.048Z,100004.38
2023-12-24T14:20:40.391Z,100011.38
2023-12-24T14:23:09.424Z,100008.03
2023-12-24T14:25:36.940Z,100008.69
2023-12-24T14:28:04.500Z,100012.09
2023-12-24T14:30:31.881Z,100017.22
2023-12-24T14:32:59.278Z,100025.00
2023-12-24T14:35:26.648Z,100000.06
2023-12-24T14:37:53.739Z,100030.41
2023-12-24T14:40:22.028Z,100010.00
2023-12-24T14:42:50.081Z,100015.53
2023-12-24T14:45:17.227Z,100015.41
2023-12-24T14:47:44.439Z,100020.66
2023-12-24T14:50:11.655Z,100016.56
2023-12-24T14:52:38.715Z,100021.91
2023-12-24T14:55:08.303Z,100027.06
2023-12-24T14:57:36.942Z,100012.94
2023-12-24T15:00:06.699Z,100010.16
2023-12-24T15:02:33.958Z,99999.53
2023-12-24T15:05:01.560Z,100012.00
2023-12-24T15:07:29.556Z,100022.63
2023-12-24T15:09:57.410Z,100021.69
2023-12-24T15:12:24.644Z,100019.81
2023-12-24T15:14:52.484Z,100019.03
2023-12-24T15:17:19.836Z,100032.19
2023-12-24T15:19:47.003Z,100027.66
2023-12-24T15:22:14.498Z,100031.28
2023-12-24T15:24:41.834Z,100032.06
2023-12-24T15:27:09.478Z,100024.91
2023-12-24T15:29:37.318Z,100034.44
2023-12-24T15:32:11.330Z,100019.28
2023-12-24T15:34:38.876Z,100009.50
2023-12-24T15:37:06.061Z,100010.31
2023-12-24T15:39:35.848Z,100015.44
2023-12-24T15:42:05.981Z,100024.31
2023-12-24T15:44:33.273Z,100032.31
2023-12-24T15:47:00.370Z,100019.75
2023-12-24T15:49:27.560Z,100028.69
2023-12-24T15:51:54.592Z,100028.56
2023-12-24T15:54:21.755Z,100041.91
2023-12-24T15:56:48.974Z,100018.88
2023-12-24T15:59:16.086Z,100017.94
2023-12-24T16:01:44.586Z,100025.81
2023-12-24T16:04:13.583Z,100013.56
2023-12-24T16:06:41.649Z,100018.84
2023-12-24T16:09:09.093Z,100025.69
2023-12-24T16:11:37.434Z,100007.91
2023-12-24T16:14:08.144Z,100003.25
2023-12-24T16:16:36.031Z,100013.97
2023-12-24T16:19:03.859Z,100004.03
2023-12-24T16:21:33.611Z,100011.94
2023-12-24T16:24:02.200Z,100025.38
2023-12-24T16:26:29.403Z,100027.19
2023-12-24T16:28:56.499Z,100024.34
2023-12-24T16:31:23.714Z,100005.03
2023-12-24T16:33:51.005Z,100014.41
2023-12-24T16:36:25.537Z,100008.97
2023-12-24T16:38:55.279Z,100018.66
2023-12-24T16:41:23.857Z,99997.22
2023-12-24T16:43:51.464Z,99996.31
2023-12-24T16:46:18.538Z,100013.94
2023-12-24T16:48:46.041Z,100012.06
2023-12-24T16:51:32.470Z,100028.56
2023-12-24T16:54:00.922Z,100036.56
2023-12-24T16:56:28.631Z,100040.06
2023-12-24T16:58:55.824Z,100028.44
2023-12-24T17:01:22.928Z,100010.63
2023-12-24T17:03:50.054Z,100009.59
2023-12-24T17:06:17.330Z,100006.00
2023-12-24T17:08:45.208Z,100005.09
2023-12-24T17:11:12.662Z,100014.69
2023-12-24T17:13:42.307Z,100005.72
2023-12-24T17:16:09.476Z,99998.75
2023-12-24T17:18:36.755Z,100000.41
2023-12-24T17:21:04.212Z,100000.34
2023-12-24T17:23:31.293Z,100004.50
2023-12-24T17:25:59.401Z,100006.13
2023-12-24T17:28:26.507Z,100007.03
2023-12-24T17:30:53.754Z,100002.56
2023-12-24T17:33:21.126Z,99996.97
2023-12-24T17:35:48.444Z,100001.50
2023-12-24T17:38:16.514Z,100007.56
2023-12-24T17:40:43.744Z,100014.56
2023-12-24T17:43:10.862Z,99983.88
2023-12-24T17:45:37.944Z,99991.47
2023-12-24T17:48:13.573Z,100002.78
2023-12-24T17:50:46.755Z,100008.91
2023-12-24T17:53:14.244Z,99994.31
2023-12-24T17:55:42.271Z,99994.75
2023-12-24T17:58:10.359Z,100005.22
2023-12-24T18:00:37.686Z,99978.69
2023-12-24T18:03:05.246Z,100005.84
2023-12-24T18:05:32.552Z,100002.22
2023-12-24T18:07:59.741Z,100004.03
2023-12-24T18:10:26.865Z,100029.88
2023-12-24T18:12:54.222Z,100038.69
2023-12-24T18:15:21.581Z,100022.81
2023-12-24T18:17:49.009Z,100041.59
2023-12-24T18:20:16.970Z,100044.19
2023-12-24T18:22:44.478Z,100056.53
2023-12-24T18:25:11.720Z,100040.31
2023-12-24T18:27:38.822Z,100018.97
2023-12-24T18:30:06.814Z,100015.19
2023-12-24T18:32:34.100Z,100023.94
2023-12-24T18:35:01.245Z,100029.25
2023-12-24T18:37:28.624Z,100035.53
2023-12-24T18:39:55.761Z,100034.66
2023-12-24T18:42:23.163Z,100041.91
2023-12-24T18:44:50.298Z,100058.06
2023-12-24T18:47:17.681Z,100050.88
2023-12-24T18:49:46.758Z,100035.69
2023-12-24T18:52:13.845Z,100040.94
2023-12-24T18:54:45.772Z,100030.19
2023-12-24T18:57:14.369Z,100038.28
2023-12-24T18:59:41.702Z,100015.28
2023-12-24T19:02:09.014Z,100031.22
2023-12-24T19:04:36.822Z,100017.94
2023-12-24T19:07:07.094Z,100010.81
2023-12-24T19:09:35.218Z,100021.31
2023-12-24T19:12:02.382Z,100021.16
2023-12-24T19:14:29.623Z,100023.97
2023-12-24T19:16:56.769Z,100048.72
2023-12-24T19:19:24.001Z,100048.81
2023-12-24T19:21:51.171Z,100054.50
2023-12-24T19:24:22.982Z,100075.53
2023-12-24T19:26:50.366Z,100064.13
2023-12-24T19:29:17.615Z,100058.06
2023-12-24T19:31:44.784Z,100046.28
2023-12-24T19:34:11.944Z,100019.13
2023-12-24T19:36:39.133Z,100044.19
2023-12-24T19:39:06.269Z,100052.22
2023-12-24T19:41:33.480Z,100043.38
2023-12-24T19:44:00.716Z,100056.59
2023-12-24T19:46:27.832Z,100050.41
2023-12-24T19:48:55.336Z,100051.25
2023-12-24T19:51:23.499Z,100041.75
2023-12-24T19:53:52.758Z,100069.09
2023-12-24T19:56:20.233Z,100060.28
2023-12-24T19:58:47.635Z,100060.91
2023-12-24T20:01:14.818Z,100061.84
2023-12-24T20:03:41.881Z,100053.63
2023-12-24T20:06:09.216Z,100057.03
2023-12-24T20:08:36.550Z,100056.16
2023-12-24T20:11:03.932Z,100068.72
2023-12-24T20:13:31.045Z,100094.34
2023-12-24T20:15:58.159Z,100100.78
2023-12-24T20:18:25.522Z,100092.72
2023-12-24T20:20:52.732Z,100094.50
2023-12-24T20:23:20.001Z,100089.09
2023-12-24T20:25:47.190Z,100102.22
2023-12-24T20:28:14.268Z,100113.59
2023-12-24T20:30:41.897Z,100105.75
2023-12-24T20:33:11.245Z,100093.34
2023-12-24T20:35:38.536Z,100104.47
2023-12-24T20:38:05.736Z,100103.53
2023-12-24T20:40:32.886Z,100095.50
2023-12-24T20:43:00.514Z,100083.72
2023-12-24T20:45:27.901Z,100093.56
2023-12-24T20:47:55.205Z,100099.94
2023-12-24T20:50:22.392Z,100094.59
2023-12-24T20:52:49.455Z,100077.13
2023-12-24T20:55:16.625Z,100083.09
2023-12-24T20:57:43.792Z,100073.22
2023-12-24T21:00:11.903Z,100060.78
2023-12-24T21:02:39.187Z,100044.69
2023-12-24T21:05:08.309Z,100058.09
2023-12-24T21:07:35.468Z,100055.44
2023-12-24T21:10:02.628Z,100061.41
2023-12-24T21:12:29.678Z,100061.16
2023-12-24T21:14:56.829Z,100053.13
2023-12-24T21:17:24.140Z,100068.41
2023-12-24T21:19:51.524Z,100065.41
2023-12-24T21:22:18.663Z,100078.84
2023-12-24T21:24:45.714Z,100069.78
2023-12-24T21:27:12.762Z,100067.22
2023-12-24T21:29:39.895Z,100068.31
2023-12-24T21:32:07.234Z,100075.75
2023-12-24T21:34:34.394Z,100072.41
2023-12-24T21:37:01.449Z,100060.00
2023-12-24T21:39:28.958Z,100086.38
2023-12-24T21:41:56.211Z,100093.38
2023-12-24T21:44:23.802Z,100080.00
2023-12-24T21:46:50.960Z,100078.13
2023-12-24T21:49:18.281Z,100067.34
2023-12-24T21:51:49.771Z,100079.94
2023-12-24T21:54:18.448Z,100071.59
2023-12-24T21:56:45.669Z,100066.25
2023-12-24T21:59:12.977Z,100088.72
2023-12-24T22:01:40.330Z,100095.19
2023-12-24T22:04:07.593Z,100108.06
2023-12-24T22:06:34.804Z,100095.47
2023-12-24T22:09:02.016Z,100096.28
2023-12-24T22:11:29.318Z,100092.78
2023-12-24T22:13:56.426Z,100084.63
2023-12-24T22:16:23.598Z,100091.88
2023-12-24T22:18:51.240Z,100110.34
2023-12-24T22:21:18.476Z,100121.91
2023-12-24T22:23:45.645Z,100133.47
2023-12-24T22:26:13.223Z,100122.91
2023-12-24T22:28:40.473Z,100135.34
2023-12-24T22:31:08.162Z,100135.03
2023-12-24T22:33:35.763Z,100134.19
2023-12-24T22:36:03.376Z,100118.91
2023-12-24T22:38:30.678Z,100123.31
2023-12-24T22:40:58.260Z,100123.22
2023-12-24T22:43:25.399Z,100137.47
2023-12-24T22:45:52.809Z,100117.72
2023-12-24T22:48:20.318Z,100124.00
2023-12-24T22:50:47.768Z,100122.19
2023-12-24T22:53:15.220Z,100114.56
2023-12-24T22:55:42.544Z,100135.66
2023-12-24T22:58:09.903Z,100143.75
2023-12-24T23:00:37.110Z,100140.44
2023-12-24T23:03:04.717Z,100139.44
2023-12-24T23:05:31.960Z,100148.41
2023-12-24T23:07:59.077Z,100150.91
2023-12-24T23:10:26.488Z,100150.13
2023-12-24T23:12:53.660Z,100137.63
2023-12-24T23:15:20.867Z,100140.22
2023-12-24T23:17:48.108Z,100121.06
2023-12-24T23:20:15.437Z,100131.31
2023-12-24T23:22:42.505Z,100138.47
2023-12-24T23:25:09.624Z,100114.56
2023-12-24T23:27:36.793Z,100131.75
2023-12-24T23:30:05.139Z,100141.31
2023-12-24T23:32:32.328Z,100143.97
2023-12-24T23:34:59.527Z,100128.84
2023-12-24T23:37:26.655Z,100128.88
2023-12-24T23:39:53.794Z,100143.06
2023-12-24T23:42:20.883Z,100149.41
2023-12-24T23:44:48.027Z,100154.69
2023-12-24T23:47:15.169Z,100144.88
2023-12-24T23:49:42.356Z,100147.59
2023-12-24T23:52:09.817Z,100135.19
2023-12-24T23:54:36.950Z,100135.28
2023-12-24T23:57:04.865Z,100132.59
2023-12-24T23:59:33.946Z,100122.84
